Hauptseite
METAR-TAF:

METAR-TAF

Flughäfen :

Tunis, Tunesien

Flughafen Tunis

Breite: 36-50N, Länge: 010-14E, Höhe: 3 m

Beobachtung

Neuester Wetterbericht von vor 15 Minuten, um 14:30 UTC
Wind 5 kt aus Nord/Nordost, variierte zwischen Nord/Nordwest und Ost
Temperatur 20°C
Luftfeuchtigkeit 64%
Luftdruck 1021 hPa
Sichtweite 10 km oder mehr
Aufgelockert bewölkt in der Höhe von 2600 ft

METAR: DTTA 241430Z 03005KT 340V090 9999 SCT026 20/13 Q1021 NOSIG

Zeit: 15:45 (14:45 UTC)

Prognose

Neuester Wetterbericht von vor 3 Stunden und 45 Minuten, um 11:00 UTC
Gültige Prognose vom 24 um 12 UTC bis 25 um 12 UTC
Wind 8 kt aus West/Nordwest
Sichtweite 10 km oder mehr
Leicht bewölkt in der Höhe von 2600 ft

TAF: DTTA 241100Z 2412/2512 30008KT 9999 FEW026

Wetterbeobachtungen und Prognosen von mehr als 4000 Flughäfen (METAR und TAF Bericht).

Die verfügbaren Stationen werden durch gelbe und rote Markierungen auf der Karte dargestellt.

Führen Sie die Maus auf sie, um den Namen der Station zu sehen.

Darauf klicken, um die Beobachtung von Wetterbeobachtungen und Prognosen zu sehen.

Um die Karte zu ändern : klicken Sie auf den grünen Tasten mit einem schwarzen Kreuz Zum Vergrößern, auf den grünen Button mit einem Gedankenstrich zu verkleinern, oder auf die grünen Pfeile für benachbarte Karten.


METAR-TAF: